createdAt,value
2022-10-24T00:00:44.802Z,101248.63
2022-10-24T00:03:12.274Z,101252.06
2022-10-24T00:05:43.326Z,101242.22
2022-10-24T00:08:10.878Z,101247.66
2022-10-24T00:10:41.129Z,101247.81
2022-10-24T00:13:08.243Z,101251.31
2022-10-24T00:15:35.364Z,101244.25
2022-10-24T00:18:02.513Z,101250.41
2022-10-24T00:20:29.686Z,101246.38
2022-10-24T00:22:56.777Z,101240.94
2022-10-24T00:25:24.191Z,101233.66
2022-10-24T00:27:51.494Z,101239.59
2022-10-24T00:30:18.763Z,101239.91
2022-10-24T00:32:46.937Z,101236.13
2022-10-24T00:35:14.356Z,101243.09
2022-10-24T00:37:41.566Z,101247.16
2022-10-24T00:40:10.337Z,101245.97
2022-10-24T00:42:37.499Z,101250.25
2022-10-24T00:45:24.618Z,101238.38
2022-10-24T00:47:51.809Z,101227.72
2022-10-24T00:50:18.935Z,101229.31
2022-10-24T00:52:47.137Z,101226.03
2022-10-24T00:55:14.784Z,101226.91
2022-10-24T00:57:47.104Z,101238.31
2022-10-24T01:00:19.225Z,101247.16
2022-10-24T01:02:46.748Z,101241.59
2022-10-24T01:05:14.748Z,101237.44
2022-10-24T01:08:00.818Z,101244.28
2022-10-24T01:10:46.581Z,101259.16
2022-10-24T01:13:27.529Z,101241.09
2022-10-24T01:16:09.942Z,101247.88
2022-10-24T01:18:44.692Z,101250.25
2022-10-24T01:21:30.610Z,101250.41
2022-10-24T01:24:03.611Z,101237.16
2022-10-24T01:26:36.900Z,101247.59
2022-10-24T01:29:16.871Z,101242.44
2022-10-24T01:31:56.940Z,101243.91
2022-10-24T01:34:47.159Z,101234.88
2022-10-24T01:37:17.852Z,101224.66
2022-10-24T01:39:48.044Z,101223.13
2022-10-24T01:42:17.423Z,101220.94
2022-10-24T01:44:47.273Z,101221.44
2022-10-24T01:47:17.851Z,101219.22
2022-10-24T01:49:50.142Z,101213.56
2022-10-24T01:52:18.603Z,101211.66
2022-10-24T01:54:48.221Z,101216.16
2022-10-24T01:57:16.026Z,101207.06
2022-10-24T01:59:45.504Z,101208.09
2022-10-24T02:02:18.441Z,101198.06
2022-10-24T02:04:50.953Z,101202.25
2022-10-24T02:07:21.809Z,101196.81
2022-10-24T02:09:51.572Z,101197.66
2022-10-24T02:12:18.920Z,101198.81
2022-10-24T02:14:49.647Z,101195.44
2022-10-24T02:17:17.500Z,101183.63
2022-10-24T02:19:45.133Z,101187.31
2022-10-24T02:22:12.299Z,101184.28
2022-10-24T02:24:43.166Z,101184.59
2022-10-24T02:27:14.523Z,101188.56
2022-10-24T02:29:44.471Z,101176.94
2022-10-24T02:32:34.733Z,101178.59
2022-10-24T02:35:03.353Z,101175.13
2022-10-24T02:37:31.556Z,101171.75
2022-10-24T02:40:00.517Z,101171.16
2022-10-24T02:45:01.221Z,101167.53
2022-10-24T02:47:29.672Z,101166.22
2022-10-24T02:49:56.865Z,101168.38
2022-10-24T02:52:24.159Z,101168.25
2022-10-24T02:54:51.821Z,101169.19
2022-10-24T02:57:19.041Z,101165.72
2022-10-24T02:59:46.250Z,101169.13
2022-10-24T03:02:13.416Z,101168.03
2022-10-24T03:04:40.589Z,101159.13
2022-10-24T03:07:07.839Z,101156.78
2022-10-24T03:09:35.108Z,101163.19
2022-10-24T03:12:02.647Z,101157.53
2022-10-24T03:14:30.557Z,101165.09
2022-10-24T03:16:57.754Z,101157.03
2022-10-24T03:19:24.926Z,101158.53
2022-10-24T03:21:52.118Z,101162.75
2022-10-24T03:24:26.888Z,101160.34
2022-10-24T03:27:04.521Z,101156.81
2022-10-24T03:29:31.754Z,101153.47
2022-10-24T03:31:58.888Z,101154.91
2022-10-24T03:34:26.174Z,101162.81
2022-10-24T03:36:53.314Z,101157.38
2022-10-24T03:39:20.473Z,101157.38
2022-10-24T03:41:47.604Z,101165.13
2022-10-24T03:44:14.789Z,101170.50
2022-10-24T03:46:42.022Z,101165.06
2022-10-24T03:49:09.200Z,101174.63
2022-10-24T03:51:36.462Z,101164.84
2022-10-24T03:54:03.707Z,101170.13
2022-10-24T03:56:30.910Z,101175.44
2022-10-24T03:58:58.123Z,101163.56
2022-10-24T04:01:25.440Z,101173.41
2022-10-24T04:03:52.610Z,101169.13
2022-10-24T04:06:19.792Z,101167.28
2022-10-24T04:08:46.983Z,101157.75
2022-10-24T04:11:14.179Z,101154.25
2022-10-24T04:13:41.348Z,101146.06
2022-10-24T04:16:09.016Z,101156.50
2022-10-24T04:18:36.205Z,101146.69
2022-10-24T04:21:04.044Z,101143.06
2022-10-24T04:23:35.676Z,101145.47
2022-10-24T04:26:02.946Z,101149.25
2022-10-24T04:28:30.332Z,101140.03
2022-10-24T04:30:57.811Z,101143.81
2022-10-24T04:33:25.030Z,101147.09
2022-10-24T04:35:52.248Z,101153.91
2022-10-24T04:38:19.662Z,101160.13
2022-10-24T04:40:48.798Z,101166.44
2022-10-24T04:43:16.092Z,101168.75
2022-10-24T04:45:43.234Z,101179.63
2022-10-24T04:48:10.442Z,101176.97
2022-10-24T04:50:39.368Z,101167.13
2022-10-24T04:53:06.546Z,101167.75
2022-10-24T04:55:33.821Z,101164.06
2022-10-24T04:58:01.282Z,101159.47
2022-10-24T05:00:28.517Z,101156.84
2022-10-24T05:02:58.928Z,101147.69
2022-10-24T05:05:26.397Z,101146.28
2022-10-24T05:07:53.535Z,101144.91
2022-10-24T05:10:20.766Z,101156.34
2022-10-24T05:12:48.221Z,101147.63
2022-10-24T05:15:15.525Z,101141.34
2022-10-24T05:17:42.677Z,101134.31
2022-10-24T05:20:10.179Z,101129.16
2022-10-24T05:22:37.300Z,101136.25
2022-10-24T05:25:04.859Z,101144.38
2022-10-24T05:27:32.057Z,101136.41
2022-10-24T05:29:59.379Z,101148.69
2022-10-24T05:32:26.548Z,101145.19
2022-10-24T05:34:53.741Z,101145.63
2022-10-24T05:37:20.888Z,101141.97
2022-10-24T05:39:48.120Z,101144.56
2022-10-24T05:42:15.799Z,101138.06
2022-10-24T05:44:42.977Z,101135.91
2022-10-24T05:47:10.277Z,101128.66
2022-10-24T05:49:37.583Z,101136.31
2022-10-24T05:52:04.939Z,101136.06
2022-10-24T05:54:42.520Z,101135.97
2022-10-24T05:57:19.301Z,101132.94
2022-10-24T05:59:46.476Z,101133.88
2022-10-24T06:02:18.325Z,101124.66
2022-10-24T06:04:45.683Z,101130.31
2022-10-24T06:07:12.912Z,101141.88
2022-10-24T06:09:41.616Z,101144.44
2022-10-24T06:12:09.886Z,101142.44
2022-10-24T06:14:38.033Z,101147.88
2022-10-24T06:17:12.098Z,101154.13
2022-10-24T06:19:40.019Z,101146.88
2022-10-24T06:22:07.915Z,101143.31
2022-10-24T06:24:36.067Z,101135.63
2022-10-24T06:27:03.811Z,101140.31
2022-10-24T06:29:30.979Z,101142.56
2022-10-24T06:31:58.198Z,101140.47
2022-10-24T06:34:25.811Z,101138.81
2022-10-24T06:36:53.423Z,101131.97
2022-10-24T06:39:20.646Z,101127.47
2022-10-24T06:41:47.865Z,101145.75
2022-10-24T06:44:15.434Z,101142.06
2022-10-24T06:46:42.677Z,101150.22
2022-10-24T06:49:10.149Z,101156.16
2022-10-24T06:51:37.385Z,101163.19
2022-10-24T06:54:04.592Z,101159.56
2022-10-24T06:56:31.898Z,101157.44
2022-10-24T06:58:59.053Z,101151.28
2022-10-24T07:01:27.626Z,101159.34
2022-10-24T07:03:54.942Z,101167.28
2022-10-24T07:08:57.019Z,101171.78
2022-10-24T07:11:24.459Z,101157.19
2022-10-24T07:13:53.316Z,101159.09
2022-10-24T07:16:23.082Z,101149.47
2022-10-24T07:18:50.572Z,101145.41
2022-10-24T07:21:18.968Z,101146.59
2022-10-24T07:23:46.366Z,101150.53
2022-10-24T07:26:17.434Z,101157.47
2022-10-24T07:28:46.593Z,101157.06
2022-10-24T07:31:17.089Z,101163.88
2022-10-24T07:33:44.319Z,101159.00
2022-10-24T07:36:15.170Z,101153.13
2022-10-24T07:38:42.353Z,101162.13
2022-10-24T07:41:09.557Z,101163.63
2022-10-24T07:43:36.800Z,101164.72
2022-10-24T07:46:08.132Z,101168.81
2022-10-24T07:48:35.860Z,101157.78
2022-10-24T07:51:05.797Z,101163.16
2022-10-24T07:53:33.094Z,101167.25
2022-10-24T07:56:00.732Z,101167.69
2022-10-24T07:58:28.528Z,101177.56
2022-10-24T08:00:55.711Z,101166.41
2022-10-24T08:03:22.942Z,101160.88
2022-10-24T08:05:50.556Z,101151.81
2022-10-24T08:08:34.968Z,101146.69
2022-10-24T08:11:07.990Z,101148.16
2022-10-24T08:13:35.222Z,101162.91
2022-10-24T08:16:04.577Z,101176.28
2022-10-24T08:18:34.639Z,101179.16
2022-10-24T08:21:06.541Z,101178.75
2022-10-24T08:23:34.385Z,101177.44
2022-10-24T08:26:04.573Z,101168.59
2022-10-24T08:28:31.811Z,101174.31
2022-10-24T08:31:00.382Z,101174.03
2022-10-24T08:33:30.200Z,101172.47
2022-10-24T08:35:59.620Z,101181.38
2022-10-24T08:38:27.245Z,101177.16
2022-10-24T08:40:54.906Z,101177.09
2022-10-24T08:43:22.593Z,101180.06
2022-10-24T08:46:10.114Z,101184.03
2022-10-24T08:48:43.869Z,101189.13
2022-10-24T08:51:30.876Z,101189.56
2022-10-24T08:53:59.168Z,101168.91
2022-10-24T08:56:28.748Z,101156.84
2022-10-24T08:58:57.118Z,101153.28
2022-10-24T09:01:27.523Z,101156.06
2022-10-24T09:03:56.958Z,101153.03
2022-10-24T09:06:26.464Z,101151.81
2022-10-24T09:09:00.919Z,101150.94
2022-10-24T09:11:40.057Z,101152.94
2022-10-24T09:14:12.190Z,101148.38
2022-10-24T09:16:41.062Z,101145.44
2022-10-24T09:19:10.776Z,101149.59
2022-10-24T09:21:40.212Z,101148.13
2022-10-24T09:24:07.588Z,101138.72
2022-10-24T09:26:37.592Z,101139.19
2022-10-24T09:29:05.119Z,101153.44
2022-10-24T09:31:32.848Z,101135.69
2022-10-24T09:34:00.926Z,101123.03
2022-10-24T09:36:29.502Z,101120.66
2022-10-24T09:38:56.661Z,101124.16
2022-10-24T09:41:29.694Z,101138.56
2022-10-24T09:44:01.142Z,101133.72
2022-10-24T09:46:29.690Z,101122.13
2022-10-24T09:49:20.175Z,101110.41
2022-10-24T09:51:51.217Z,101107.63
2022-10-24T09:54:18.361Z,101124.84
2022-10-24T09:57:02.632Z,101123.09
2022-10-24T09:59:29.833Z,101122.19
2022-10-24T10:02:19.249Z,101132.06
2022-10-24T10:05:09.426Z,101128.69
2022-10-24T10:07:38.787Z,101125.13
2022-10-24T10:10:09.599Z,101125.50
2022-10-24T10:12:37.947Z,101122.31
2022-10-24T10:15:20.198Z,101124.56
2022-10-24T10:17:52.030Z,101117.00
2022-10-24T10:20:39.336Z,101122.19
2022-10-24T10:23:26.894Z,101135.03
2022-10-24T10:26:13.636Z,101126.91
2022-10-24T10:28:43.593Z,101119.16
2022-10-24T10:40:37.010Z,101102.91
2022-10-24T10:43:28.574Z,101097.75
2022-10-24T10:46:01.819Z,101099.72
2022-10-24T10:48:42.279Z,101099.31
2022-10-24T10:51:27.484Z,101100.13
2022-10-24T10:53:54.610Z,101088.41
2022-10-24T10:56:21.813Z,101085.69
2022-10-24T10:58:56.720Z,101076.19
2022-10-24T11:01:42.655Z,101074.00
2022-10-24T11:04:20.207Z,101072.63
2022-10-24T11:06:56.513Z,101077.47
2022-10-24T11:09:29.245Z,101073.75
2022-10-24T11:12:03.002Z,101068.31
2022-10-24T11:14:35.072Z,101068.31
2022-10-24T11:17:11.312Z,101069.47
2022-10-24T11:19:46.108Z,101062.47
2022-10-24T11:22:20.295Z,101065.06
2022-10-24T11:24:53.234Z,101048.09
2022-10-24T11:27:24.482Z,101055.56
2022-10-24T11:30:05.201Z,101046.31
2022-10-24T11:32:46.242Z,101033.72
2022-10-24T11:35:27.727Z,101037.09
2022-10-24T11:38:15.079Z,101034.00
2022-10-24T11:40:44.741Z,101029.78
2022-10-24T11:43:27.342Z,101034.56
2022-10-24T11:46:05.343Z,101029.78
2022-10-24T11:48:50.942Z,101028.19
2022-10-24T11:51:21.780Z,101023.63
2022-10-24T11:53:57.289Z,101012.09
2022-10-24T11:56:30.848Z,101006.34
2022-10-24T11:59:02.417Z,100998.53
2022-10-24T12:01:35.716Z,101006.38
2022-10-24T12:04:11.706Z,101000.63
2022-10-24T12:06:47.594Z,100988.81
2022-10-24T12:09:14.748Z,100991.41
2022-10-24T12:12:00.544Z,100980.00
2022-10-24T12:14:38.606Z,100973.38
2022-10-24T12:17:24.769Z,100962.84
2022-10-24T12:19:52.354Z,100972.09
2022-10-24T12:25:12.945Z,100981.00
2022-10-24T12:27:41.483Z,100960.78
2022-10-24T12:30:08.562Z,100945.50
2022-10-24T12:33:04.953Z,100946.13
2022-10-24T12:35:34.287Z,100964.38
2022-10-24T12:38:02.819Z,100951.66
2022-10-24T12:40:55.818Z,100944.97
2022-10-24T12:43:32.104Z,100952.78
2022-10-24T12:46:15.877Z,100934.19
2022-10-24T12:48:58.393Z,100931.81
2022-10-24T12:51:38.653Z,100923.69
2022-10-24T12:54:11.541Z,100929.75
2022-10-24T12:56:51.194Z,100916.63
2022-10-24T12:59:27.521Z,100917.94
2022-10-24T13:02:13.219Z,100897.53
2022-10-24T13:04:59.342Z,100913.91
2022-10-24T13:07:34.388Z,100904.38
2022-10-24T13:10:20.247Z,100908.59
2022-10-24T13:12:53.226Z,100925.28
2022-10-24T13:15:26.438Z,100908.16
2022-10-24T13:17:57.171Z,100870.41
2022-10-24T13:20:34.021Z,100866.72
2022-10-24T13:23:03.231Z,100884.72
2022-10-24T13:25:37.458Z,100883.84
2022-10-24T13:28:16.959Z,100882.66
2022-10-24T13:30:46.028Z,100879.28
2022-10-24T13:33:36.537Z,100883.53
2022-10-24T13:36:09.927Z,100884.53
2022-10-24T13:38:41.733Z,100883.38
2022-10-24T13:41:14.715Z,100875.91
2022-10-24T13:43:47.039Z,100870.03
2022-10-24T13:46:23.875Z,100869.63
2022-10-24T13:48:52.427Z,100862.66
2022-10-24T13:51:32.255Z,100862.25
2022-10-24T13:54:02.311Z,100852.16
2022-10-24T13:56:31.835Z,100849.75
2022-10-24T13:58:59.024Z,100856.91
2022-10-24T14:01:28.608Z,100852.53
2022-10-24T14:03:57.196Z,100848.09
2022-10-24T14:06:32.207Z,100861.03
2022-10-24T14:09:07.189Z,100871.47
2022-10-24T14:11:39.334Z,100868.00
2022-10-24T14:14:13.822Z,100866.78
2022-10-24T14:16:41.106Z,100864.97
2022-10-24T14:19:15.413Z,100861.28
2022-10-24T14:21:48.567Z,100847.91
2022-10-24T14:24:16.999Z,100848.50
2022-10-24T14:26:45.735Z,100849.56
2022-10-24T14:29:23.296Z,100848.34
2022-10-24T14:31:59.140Z,100842.03
2022-10-24T14:34:26.908Z,100840.63
2022-10-24T14:36:56.049Z,100850.84
2022-10-24T14:39:26.460Z,100854.44
2022-10-24T14:41:54.209Z,100845.88
2022-10-24T14:44:22.404Z,100845.00
2022-10-24T14:47:03.034Z,100845.19
2022-10-24T14:49:33.699Z,100847.59
2022-10-24T14:52:07.869Z,100843.72
2022-10-24T14:54:35.725Z,100839.91
2022-10-24T14:57:04.062Z,100831.44
2022-10-24T14:59:35.796Z,100842.06
2022-10-24T15:02:06.170Z,100834.16
2022-10-24T15:04:38.070Z,100842.84
2022-10-24T15:07:29.502Z,100840.69
2022-10-24T15:10:01.693Z,100841.44
2022-10-24T15:12:40.832Z,100842.41
2022-10-24T15:15:23.550Z,100826.16
2022-10-24T15:17:58.357Z,100823.75
2022-10-24T15:20:30.099Z,100828.63
2022-10-24T15:22:58.870Z,100824.22
2022-10-24T15:25:39.183Z,100826.94
2022-10-24T15:28:29.216Z,100823.47
2022-10-24T15:30:56.339Z,100832.69
2022-10-24T15:33:23.449Z,100823.34
2022-10-24T15:35:50.587Z,100825.94
2022-10-24T15:38:18.757Z,100829.75
2022-10-24T15:40:47.419Z,100819.34
2022-10-24T15:43:16.259Z,100820.66
2022-10-24T15:45:43.711Z,100825.00
2022-10-24T15:48:11.004Z,100831.41
2022-10-24T15:50:43.487Z,100839.00
2022-10-24T15:53:15.532Z,100841.72
2022-10-24T15:55:42.669Z,100838.56
2022-10-24T15:58:13.646Z,100828.91
2022-10-24T16:00:41.275Z,100831.06
2022-10-24T16:03:11.826Z,100830.09
2022-10-24T16:05:41.124Z,100820.22
2022-10-24T16:08:15.402Z,100823.19
2022-10-24T16:10:43.622Z,100838.31
2022-10-24T16:13:13.245Z,100845.66
2022-10-24T16:15:40.913Z,100838.09
2022-10-24T16:18:08.821Z,100833.84
2022-10-24T16:20:36.008Z,100837.53
2022-10-24T16:23:03.843Z,100836.91
2022-10-24T16:25:35.875Z,100835.16
2022-10-24T16:28:05.922Z,100839.78
2022-10-24T16:30:33.804Z,100829.94
2022-10-24T16:33:00.994Z,100830.91
2022-10-24T16:35:29.412Z,100834.50
2022-10-24T16:37:57.568Z,100826.81
2022-10-24T16:40:26.880Z,100824.53
2022-10-24T16:42:55.339Z,100820.41
2022-10-24T16:45:23.164Z,100819.53
2022-10-24T16:47:51.000Z,100821.69
2022-10-24T16:50:23.911Z,100825.78
2022-10-24T16:52:51.995Z,100820.59
2022-10-24T16:55:19.405Z,100817.78
2022-10-24T16:57:47.282Z,100809.00
2022-10-24T17:00:16.867Z,100817.25
2022-10-24T17:02:45.670Z,100812.97
2022-10-24T17:05:13.564Z,100810.50
2022-10-24T17:07:41.256Z,100818.84
2022-10-24T17:10:08.860Z,100821.72
2022-10-24T17:12:36.020Z,100818.47
2022-10-24T17:15:03.509Z,100822.28
2022-10-24T17:17:30.885Z,100808.81
2022-10-24T17:19:58.081Z,100804.38
2022-10-24T17:22:25.347Z,100821.06
2022-10-24T17:24:53.436Z,100823.06
2022-10-24T17:27:21.302Z,100825.88
2022-10-24T17:29:49.214Z,100827.81
2022-10-24T17:32:16.755Z,100821.63
2022-10-24T17:34:45.656Z,100824.53
2022-10-24T17:37:16.223Z,100825.50
2022-10-24T17:39:51.336Z,100831.00
2022-10-24T17:42:19.276Z,100826.69
2022-10-24T17:44:47.673Z,100832.19
2022-10-24T17:47:15.725Z,100822.34
2022-10-24T17:49:43.505Z,100826.09
2022-10-24T17:52:12.503Z,100831.81
2022-10-24T17:54:44.777Z,100840.16
2022-10-24T17:57:13.025Z,100834.06
2022-10-24T17:59:40.364Z,100840.53
2022-10-24T18:02:11.774Z,100836.22
2022-10-24T18:04:40.590Z,100839.78
2022-10-24T18:07:07.793Z,100836.31
2022-10-24T18:09:36.910Z,100841.03
2022-10-24T18:12:04.108Z,100842.31
2022-10-24T18:14:31.413Z,100838.75
2022-10-24T18:16:59.852Z,100851.31
2022-10-24T18:19:26.991Z,100847.44
2022-10-24T18:21:54.100Z,100839.63
2022-10-24T18:24:21.215Z,100846.88
2022-10-24T18:26:48.330Z,100854.09
2022-10-24T18:29:15.422Z,100854.59
2022-10-24T18:31:42.557Z,100848.78
2022-10-24T18:34:09.918Z,100849.97
2022-10-24T18:36:37.112Z,100848.72
2022-10-24T18:39:04.363Z,100851.78
2022-10-24T18:41:34.359Z,100847.44
2022-10-24T18:44:24.712Z,100859.16
2022-10-24T18:46:52.440Z,100850.88
2022-10-24T18:49:19.756Z,100851.94
2022-10-24T18:51:57.669Z,100852.09
2022-10-24T18:54:25.058Z,100849.41
2022-10-24T18:56:52.358Z,100856.91
2022-10-24T18:59:20.792Z,100848.78
2022-10-24T19:02:06.774Z,100847.00
2022-10-24T19:04:34.202Z,100839.84
2022-10-24T19:07:02.441Z,100840.31
2022-10-24T19:09:29.933Z,100844.31
2022-10-24T19:11:57.154Z,100842.03
2022-10-24T19:14:25.174Z,100840.91
2022-10-24T19:16:52.871Z,100836.03
2022-10-24T19:19:25.314Z,100848.19
2022-10-24T19:21:52.456Z,100846.66
2022-10-24T19:24:19.702Z,100845.63
2022-10-24T19:26:46.810Z,100851.16
2022-10-24T19:29:14.024Z,100841.75
2022-10-24T19:31:41.157Z,100847.97
2022-10-24T19:34:09.516Z,100836.97
2022-10-24T19:36:36.851Z,100839.19
2022-10-24T19:39:04.025Z,100838.22
2022-10-24T19:41:31.107Z,100848.59
2022-10-24T19:43:58.409Z,100855.47
2022-10-24T19:46:25.637Z,100849.16
2022-10-24T19:48:53.289Z,100849.06
2022-10-24T19:51:20.944Z,100843.38
2022-10-24T19:53:49.692Z,100837.41
2022-10-24T19:56:22.651Z,100843.59
2022-10-24T19:58:52.471Z,100844.38
2022-10-24T20:01:21.217Z,100842.75
2022-10-24T20:03:49.291Z,100857.31
2022-10-24T20:06:17.036Z,100857.06
2022-10-24T20:08:46.433Z,100849.69
2022-10-24T20:11:15.619Z,100852.09
2022-10-24T20:13:43.789Z,100847.56
2022-10-24T20:16:11.098Z,100846.97
2022-10-24T20:18:38.882Z,100847.38
2022-10-24T20:21:07.593Z,100856.97
2022-10-24T20:23:35.708Z,100861.66
2022-10-24T20:26:04.914Z,100851.81
2022-10-24T20:28:40.412Z,100852.09
2022-10-24T20:31:07.655Z,100852.72
2022-10-24T20:33:34.801Z,100853.75
2022-10-24T20:36:01.983Z,100850.97
2022-10-24T20:38:29.334Z,100861.41
2022-10-24T20:41:00.791Z,100870.97
2022-10-24T20:43:28.500Z,100863.31
2022-10-24T20:45:55.712Z,100858.00
2022-10-24T20:48:23.040Z,100874.88
2022-10-24T20:50:50.230Z,100867.75
2022-10-24T20:53:17.349Z,100860.88
2022-10-24T20:55:45.070Z,100862.63
2022-10-24T20:58:13.542Z,100859.81
2022-10-24T21:03:12.194Z,100867.84
2022-10-24T21:05:39.543Z,100870.53
2022-10-24T21:08:06.692Z,100862.53
2022-10-24T21:10:33.837Z,100861.03
2022-10-24T21:13:01.051Z,100871.47
2022-10-24T21:15:28.207Z,100864.06
2022-10-24T21:17:55.325Z,100862.78
2022-10-24T21:20:22.486Z,100857.25
2022-10-24T21:22:49.612Z,100848.19
2022-10-24T21:25:16.743Z,100853.06
2022-10-24T21:27:43.984Z,100846.78
2022-10-24T21:30:14.616Z,100859.03
2022-10-24T21:32:42.337Z,100851.38
2022-10-24T21:35:09.451Z,100865.38
2022-10-24T21:37:36.557Z,100855.38
2022-10-24T21:40:04.019Z,100867.56
2022-10-24T21:42:31.442Z,100863.16
2022-10-24T21:44:58.544Z,100864.66
2022-10-24T21:47:25.709Z,100858.50
2022-10-24T21:49:52.819Z,100864.25
2022-10-24T21:52:20.068Z,100871.91
2022-10-24T21:54:47.198Z,100875.25
2022-10-24T21:57:14.329Z,100870.59
2022-10-24T21:59:41.428Z,100872.63
2022-10-24T22:02:09.227Z,100862.84
2022-10-24T22:04:36.479Z,100859.16
2022-10-24T22:07:05.885Z,100848.38
2022-10-24T22:09:33.078Z,100857.47
2022-10-24T22:12:00.563Z,100866.38
2022-10-24T22:14:27.930Z,100871.78
2022-10-24T22:16:55.114Z,100870.00
2022-10-24T22:19:22.210Z,100863.28
2022-10-24T22:21:50.168Z,100862.72
2022-10-24T22:24:18.640Z,100862.53
2022-10-24T22:26:45.841Z,100856.00
2022-10-24T22:29:14.271Z,100873.38
2022-10-24T22:31:41.973Z,100878.31
2022-10-24T22:34:11.186Z,100873.00
2022-10-24T22:36:56.804Z,100864.94
2022-10-24T22:39:24.806Z,100863.28
2022-10-24T22:41:52.126Z,100863.84
2022-10-24T22:44:22.763Z,100867.78
2022-10-24T22:46:49.884Z,100879.41
2022-10-24T22:49:20.064Z,100874.63
2022-10-24T22:51:47.356Z,100869.13
2022-10-24T22:54:18.060Z,100866.94
2022-10-24T22:56:45.274Z,100858.22
2022-10-24T22:59:12.476Z,100867.03
2022-10-24T23:01:49.279Z,100869.38
2022-10-24T23:04:16.465Z,100878.47
2022-10-24T23:06:55.384Z,100881.47
2022-10-24T23:09:22.520Z,100882.34
2022-10-24T23:11:49.905Z,100877.91
2022-10-24T23:16:55.241Z,100889.09
2022-10-24T23:19:23.872Z,100884.16
2022-10-24T23:22:00.098Z,100886.34
2022-10-24T23:24:28.467Z,100889.03
2022-10-24T23:27:01.424Z,100895.72
2022-10-24T23:29:32.609Z,100892.69
2022-10-24T23:31:59.992Z,100891.38
2022-10-24T23:34:27.381Z,100885.47
2022-10-24T23:36:56.933Z,100880.38
2022-10-24T23:39:25.125Z,100885.16
2022-10-24T23:41:52.548Z,100889.66
2022-10-24T23:44:19.805Z,100892.34
2022-10-24T23:46:50.050Z,100888.63
2022-10-24T23:49:30.381Z,100891.16
2022-10-24T23:52:19.015Z,100899.09
2022-10-24T23:54:46.357Z,100900.81
2022-10-24T23:57:15.570Z,100891.06
2022-10-24T23:59:43.106Z,100897.81
